Aérodrome :
LOGIN :

S'inscrire | Disclaimer

   EN    FR    IT 

 










Légende :    VFR   VFR Marginal   IFR   IFR Intensif   IFR Très Intensif
Visi : 
Plafond : 
>= 8 km
>= 3000ft
5 à 8 km
1000 à 3000 ft
1500m à 5 km
500 à 1000 ft
800 à 1500m
200 à 500 ft
< 800m
< 200 ft
Symboles :   Orages  Brouillard  Fortes neiges  Fortes précipitations  Vent > 20 kt
SIGMETs :   Divers  Orages  Givrage  Turbulence  Onde Orograph.  Cendres Volcan.






- Altitude de l'aérodrome : 160 ft
- Code IATA : FMO


EDDG - Münster Osnabrück Int.

DERNIER METAR :
  • 291750Z 06005KT 020V130 CAVOK 21/04 Q1025 NOSIG

METARs EXPIRÉS :
  • 291720Z 05008KT 010V100 CAVOK 21/03 Q1025 BECMG 04003KT
  • 291650Z 05006KT 340V130 CAVOK 21/03 Q1025 NOSIG
  • 291620Z 07006KT 330V120 CAVOK 21/03 Q1025 NOSIG
  • 291550Z 06008KT 020V150 CAVOK 22/02 Q1025 NOSIG
  • 291520Z VRB06G17KT CAVOK 22/01 Q1026 NOSIG
  • 291450Z 05007KT 350V130 CAVOK 22/M01 Q1026 NOSIG

TAF TAF EDDG
Valide du 29 à 18h jusqu'au 30 à 18h UTC


291700Z 2918/3018 04005KT CAVOK
TEMPO 3001/3006 VRB02KT
BECMG 3009/3012 06010KT



MET'MAP, la Météo Aéronautique d'un coup d'oeil ! - Copyright ORBIFLY Décembre 2007 - Disclaimer

ORBIFLY MET'MAP TEAM :

Programmation & Développement : Alexandra Zaïnal
Sur une idée originale de : Baudouin d'Aumeries
Assistance à la programmation : Marc-Olivier Méhu
Soutien technique & logistique : Manuel Goepfert

Contact : metmap@orbifly.com




SOURCES & CREDITS :

   NOAA